createdAt,value
2022-08-02T00:00:55.562Z,2.799999952
2022-08-02T00:01:54.729Z,2.799999952
2022-08-02T00:02:55.474Z,2.700000048
2022-08-02T00:03:56.284Z,2.700000048
2022-08-02T00:04:57.026Z,2.5
2022-08-02T00:05:57.687Z,2.5
2022-08-02T00:06:58.467Z,2.700000048
2022-08-02T00:07:59.290Z,2.599999905
2022-08-02T00:09:00.799Z,2.200000048
2022-08-02T00:10:02.400Z,2.700000048
2022-08-02T00:11:03.149Z,2.700000048
2022-08-02T00:12:04.868Z,2.599999905
2022-08-02T00:13:05.662Z,2.599999905
2022-08-02T00:14:06.433Z,2.700000048
2022-08-02T00:15:07.254Z,2.5
2022-08-02T00:16:08.832Z,2.700000048
2022-08-02T00:17:09.665Z,2.5
2022-08-02T00:18:10.534Z,2.900000095
2022-08-02T00:19:12.253Z,2.700000048
2022-08-02T00:20:12.986Z,2.700000048
2022-08-02T00:21:14.201Z,3
2022-08-02T00:22:15.397Z,2.400000095
2022-08-02T00:23:15.881Z,2.700000048
2022-08-02T00:24:29.031Z,2.799999952
2022-08-02T00:25:17.441Z,2.700000048
2022-08-02T00:26:18.075Z,2.5
2022-08-02T00:27:18.902Z,2.599999905
2022-08-02T00:28:26.859Z,2.599999905
2022-08-02T00:29:53.291Z,2.700000048
2022-08-02T00:30:52.837Z,2.400000095
2022-08-02T00:31:53.606Z,2.400000095
2022-08-02T00:32:54.414Z,2.799999952
2022-08-02T00:34:26.164Z,2.400000095
2022-08-02T00:34:56.110Z,2.299999952
2022-08-02T00:35:57.366Z,2.299999952
2022-08-02T00:36:58.221Z,2.599999905
2022-08-02T00:37:58.920Z,2.599999905
2022-08-02T00:39:00.262Z,3.400000095
2022-08-02T00:40:01.853Z,2.700000048
2022-08-02T00:41:02.609Z,2.799999952
2022-08-02T00:42:03.352Z,2.900000095
2022-08-02T00:43:04.158Z,3
2022-08-02T00:44:04.946Z,3
2022-08-02T00:45:05.666Z,2.599999905
2022-08-02T00:46:06.389Z,2.5
2022-08-02T00:47:07.073Z,2.400000095
2022-08-02T00:48:07.869Z,2.599999905
2022-08-02T00:49:09.441Z,2
2022-08-02T00:50:10.094Z,2.799999952
2022-08-02T00:51:11.722Z,2.599999905
2022-08-02T00:52:13.016Z,2.700000048
2022-08-02T00:53:13.302Z,2.299999952
2022-08-02T00:54:14.104Z,2.299999952
2022-08-02T00:55:17.477Z,2.5
2022-08-02T00:56:16.259Z,2.5
2022-08-02T00:57:17.046Z,2.5
2022-08-02T00:58:17.885Z,2.400000095
2022-08-02T00:59:19.405Z,2.299999952
2022-08-02T01:00:50.541Z,2.299999952
2022-08-02T01:01:55.839Z,2.400000095
2022-08-02T01:02:52.023Z,2.900000095
2022-08-02T01:03:53.768Z,2.400000095
2022-08-02T01:04:54.587Z,2.5
2022-08-02T01:06:02.361Z,2.299999952
2022-08-02T01:06:56.721Z,2.900000095
2022-08-02T01:07:57.472Z,2.400000095
2022-08-02T01:08:58.917Z,2.400000095
2022-08-02T01:09:59.707Z,2
2022-08-02T01:11:00.427Z,3.200000048
2022-08-02T01:12:07.329Z,2.299999952
2022-08-02T01:13:01.906Z,2.5
2022-08-02T01:14:02.724Z,2.099999905
2022-08-02T01:15:03.528Z,2.099999905
2022-08-02T01:16:04.309Z,2.5
2022-08-02T01:17:05.059Z,2.299999952
2022-08-02T01:18:05.789Z,2.200000048
2022-08-02T01:19:07.384Z,2.299999952
2022-08-02T01:20:08.213Z,3.400000095
2022-08-02T01:21:09.012Z,2.299999952
2022-08-02T01:22:10.072Z,2.5
2022-08-02T01:23:11.508Z,2.200000048
2022-08-02T01:24:12.370Z,2.599999905
2022-08-02T01:25:13.201Z,2.5
2022-08-02T01:26:13.989Z,2.5
2022-08-02T01:27:14.689Z,2.299999952
2022-08-02T01:28:15.406Z,2.599999905
2022-08-02T01:29:16.897Z,2.799999952
2022-08-02T01:30:17.794Z,2.700000048
2022-08-02T01:31:18.588Z,2.599999905
2022-08-02T01:32:49.961Z,2.400000095
2022-08-02T01:33:51.365Z,3
2022-08-02T01:34:52.140Z,2.5
2022-08-02T01:35:52.956Z,2.700000048
2022-08-02T01:36:54.273Z,2.900000095
2022-08-02T01:37:55.110Z,2.599999905
2022-08-02T01:38:55.668Z,2.299999952
2022-08-02T01:39:57.292Z,2.299999952
2022-08-02T01:40:58.086Z,2.599999905
2022-08-02T01:41:59.209Z,2.299999952
2022-08-02T01:42:59.670Z,2.400000095
2022-08-02T01:44:00.313Z,3
2022-08-02T01:45:01.047Z,2.5
2022-08-02T01:46:01.839Z,2.200000048
2022-08-02T01:47:02.684Z,2.5
2022-08-02T01:48:03.488Z,2.200000048
2022-08-02T01:49:06.841Z,2.599999905
2022-08-02T01:50:06.958Z,2.900000095
2022-08-02T01:51:07.793Z,2.200000048
2022-08-02T01:52:09.060Z,3.099999905
2022-08-02T01:53:09.476Z,2.599999905
2022-08-02T01:54:10.696Z,2.400000095
2022-08-02T01:55:18.550Z,2.700000048
2022-08-02T01:56:12.506Z,2.099999905
2022-08-02T01:57:13.376Z,2.099999905
2022-08-02T01:58:14.212Z,2.299999952
2022-08-02T01:59:15.859Z,2.299999952
2022-08-02T02:00:16.556Z,2.5
2022-08-02T02:01:18.560Z,2.200000048
2022-08-02T02:02:18.212Z,2.599999905
2022-08-02T02:03:49.601Z,2.400000095
2022-08-02T02:04:50.268Z,2.299999952
2022-08-02T02:05:51.020Z,2.5
2022-08-02T02:06:52.838Z,2.5
2022-08-02T02:07:53.674Z,2.5
2022-08-02T02:08:54.525Z,2.5
2022-08-02T02:09:55.712Z,2.099999905
2022-08-02T02:10:56.491Z,2.5
2022-08-02T02:12:09.456Z,2.400000095
2022-08-02T02:12:58.107Z,2.700000048
2022-08-02T02:13:58.866Z,2.299999952
2022-08-02T02:14:59.530Z,2.799999952
2022-08-02T02:16:00.879Z,2.099999905
2022-08-02T02:17:01.709Z,2.299999952
2022-08-02T02:18:12.729Z,2.200000048
2022-08-02T02:19:03.371Z,2.200000048
2022-08-02T02:20:04.705Z,2.599999905
2022-08-02T02:21:05.389Z,2.700000048
2022-08-02T02:22:06.871Z,2.799999952
2022-08-02T02:23:08.058Z,2.5
2022-08-02T02:24:11.751Z,2.299999952
2022-08-02T02:25:11.458Z,2.400000095
2022-08-02T02:26:09.826Z,2.700000048
2022-08-02T02:27:10.560Z,3.299999952
2022-08-02T02:28:11.595Z,2.5
2022-08-02T02:29:12.452Z,2.400000095
2022-08-02T02:30:13.756Z,2.5
2022-08-02T02:31:14.484Z,2.799999952
2022-08-02T02:32:15.309Z,2.900000095
2022-08-02T02:33:16.101Z,2.700000048
2022-08-02T02:34:16.943Z,2.599999905
2022-08-02T02:35:17.667Z,2.5
2022-08-02T02:36:49.709Z,2.900000095
2022-08-02T02:37:50.498Z,2.5
2022-08-02T02:38:51.476Z,2.599999905
2022-08-02T02:39:52.836Z,2.5
2022-08-02T02:40:54.401Z,2.900000095
2022-08-02T02:41:55.088Z,2.700000048
2022-08-02T02:42:55.871Z,2.599999905
2022-08-02T02:43:56.665Z,2.700000048
2022-08-02T02:44:57.506Z,2.700000048
2022-08-02T02:45:58.853Z,2.599999905
2022-08-02T02:46:59.549Z,2.700000048
2022-08-02T02:48:00.312Z,2.799999952
2022-08-02T02:49:01.224Z,2.599999905
2022-08-02T02:50:02.935Z,2.799999952
2022-08-02T02:51:03.679Z,3
2022-08-02T02:52:04.375Z,2.5
2022-08-02T02:53:05.062Z,2.599999905
2022-08-02T02:54:31.070Z,2.799999952
2022-08-02T02:55:07.618Z,3.299999952
2022-08-02T02:56:08.383Z,2.299999952
2022-08-02T02:57:09.076Z,2.799999952
2022-08-02T02:58:09.828Z,2.5
2022-08-02T02:59:10.631Z,3.299999952
2022-08-02T03:00:12.374Z,2.900000095
2022-08-02T03:01:13.218Z,2.700000048
2022-08-02T03:02:14.252Z,2.799999952
2022-08-02T03:03:14.560Z,3.200000048
2022-08-02T03:04:15.337Z,3.099999905
2022-08-02T03:05:16.204Z,3.900000095
2022-08-02T03:06:16.982Z,3.5
2022-08-02T03:07:49.374Z,3.400000095
2022-08-02T03:08:50.144Z,3
2022-08-02T03:09:53.788Z,2.799999952
2022-08-02T03:10:52.784Z,3.099999905
2022-08-02T03:11:54.404Z,3.099999905
2022-08-02T03:12:55.235Z,3.099999905
2022-08-02T03:13:55.966Z,3
2022-08-02T03:14:56.759Z,3
2022-08-02T03:15:57.606Z,3.299999952
2022-08-02T03:16:58.370Z,3.200000048
2022-08-02T03:17:59.085Z,3.200000048
2022-08-02T03:18:59.761Z,3
2022-08-02T03:20:01.411Z,3.299999952
2022-08-02T03:21:02.249Z,3.200000048
2022-08-02T03:22:03.021Z,3.099999905
2022-08-02T03:23:03.879Z,2.799999952
2022-08-02T03:24:04.722Z,2.900000095
2022-08-02T03:25:05.460Z,3.299999952
2022-08-02T03:26:06.255Z,3.299999952
2022-08-02T03:27:07.022Z,3.200000048
2022-08-02T03:28:07.736Z,2.900000095
2022-08-02T03:29:10.014Z,3
2022-08-02T03:30:09.932Z,3
2022-08-02T03:31:10.807Z,2.599999905
2022-08-02T03:32:11.888Z,3
2022-08-02T03:33:12.491Z,3.200000048
2022-08-02T03:34:13.305Z,3.200000048
2022-08-02T03:35:13.999Z,3.200000048
2022-08-02T03:36:14.748Z,3.099999905
2022-08-02T03:37:16.227Z,2.700000048
2022-08-02T03:38:16.931Z,3.200000048
2022-08-02T03:39:51.870Z,3.099999905
2022-08-02T03:40:50.805Z,3.299999952
2022-08-02T03:41:52.478Z,3
2022-08-02T03:42:53.247Z,3.099999905
2022-08-02T03:43:54.060Z,3.599999905
2022-08-02T03:44:54.892Z,2.900000095
2022-08-02T03:45:55.724Z,2.799999952
2022-08-02T03:46:56.639Z,3.5
2022-08-02T03:47:58.765Z,3.5
2022-08-02T03:48:58.254Z,2.900000095
2022-08-02T03:49:59.894Z,3.400000095
2022-08-02T03:51:00.606Z,3.299999952
2022-08-02T03:52:01.435Z,3.099999905
2022-08-02T03:53:02.228Z,3.200000048
2022-08-02T03:54:03.775Z,3
2022-08-02T03:55:05.255Z,3.5
2022-08-02T03:56:06.940Z,3
2022-08-02T03:57:09.613Z,3.200000048
2022-08-02T03:58:08.557Z,3.5
2022-08-02T03:59:09.247Z,3.5
2022-08-02T04:00:10.898Z,2.900000095
2022-08-02T04:01:11.841Z,3
2022-08-02T04:02:12.853Z,3.400000095
2022-08-02T04:03:13.240Z,3.299999952
2022-08-02T04:04:14.079Z,3.299999952
2022-08-02T04:05:14.874Z,3.099999905
2022-08-02T04:06:15.858Z,3.099999905
2022-08-02T04:07:18.547Z,3.400000095
2022-08-02T04:08:48.617Z,3.099999905
2022-08-02T04:09:49.356Z,3.299999952
2022-08-02T04:10:50.743Z,3.5
2022-08-02T04:11:51.514Z,3.099999905
2022-08-02T04:12:52.945Z,3.200000048
2022-08-02T04:13:56.896Z,3.200000048
2022-08-02T04:14:54.386Z,3.400000095
2022-08-02T04:15:55.129Z,3.700000048
2022-08-02T04:16:55.912Z,2.799999952
2022-08-02T04:17:56.780Z,3.400000095
2022-08-02T04:18:57.587Z,2.900000095
2022-08-02T04:19:58.385Z,3.5
2022-08-02T04:20:59.814Z,2.900000095
2022-08-02T04:22:00.631Z,3
2022-08-02T04:23:02.491Z,2.900000095
2022-08-02T04:24:03.264Z,3.700000048
2022-08-02T04:25:04.154Z,3.200000048
2022-08-02T04:26:04.753Z,3.400000095
2022-08-02T04:27:19.229Z,3.700000048
2022-08-02T04:28:17.732Z,3.5
2022-08-02T04:29:07.041Z,3.299999952
2022-08-02T04:30:08.430Z,3.200000048
2022-08-02T04:31:09.176Z,3.299999952
2022-08-02T04:32:10.272Z,2.700000048
2022-08-02T04:33:11.654Z,2.799999952
2022-08-02T04:34:15.191Z,3.200000048
2022-08-02T04:35:20.883Z,3.099999905
2022-08-02T04:36:13.975Z,2.900000095
2022-08-02T04:37:14.717Z,3.400000095
2022-08-02T04:38:15.464Z,3.5
2022-08-02T04:39:16.142Z,3.299999952
2022-08-02T04:40:48.361Z,2.900000095
2022-08-02T04:41:49.000Z,3.5
2022-08-02T04:42:49.761Z,3.200000048
2022-08-02T04:43:51.373Z,3.299999952
2022-08-02T04:44:52.150Z,2.900000095
2022-08-02T04:45:52.867Z,3.700000048
2022-08-02T04:46:53.633Z,3
2022-08-02T04:48:55.319Z,3.5
2022-08-02T04:49:56.193Z,3.099999905
2022-08-02T04:50:57.739Z,3.299999952
2022-08-02T04:51:58.441Z,3.099999905
2022-08-02T04:52:59.262Z,3.400000095
2022-08-02T04:54:06.170Z,2.799999952
2022-08-02T04:55:01.780Z,2.799999952
2022-08-02T04:56:02.515Z,3.099999905
2022-08-02T04:57:03.256Z,3.400000095
2022-08-02T04:58:13.592Z,3.299999952
2022-08-02T04:59:04.825Z,3.299999952
2022-08-02T05:00:05.608Z,3.299999952
2022-08-02T05:01:07.454Z,3.099999905
2022-08-02T05:02:08.318Z,3.299999952
2022-08-02T05:03:08.854Z,3.599999905
2022-08-02T05:04:09.722Z,3.099999905
2022-08-02T05:05:10.496Z,3.400000095
2022-08-02T05:06:19.508Z,3.299999952
2022-08-02T05:07:12.276Z,3
2022-08-02T05:08:13.016Z,3.400000095
2022-08-02T05:09:13.844Z,3.200000048
2022-08-02T05:10:15.550Z,3.400000095
2022-08-02T05:11:55.037Z,3.099999905
2022-08-02T05:12:48.377Z,3.599999905
2022-08-02T05:13:58.734Z,3.200000048
2022-08-02T05:14:50.001Z,3.799999952
2022-08-02T05:15:50.763Z,3.799999952
2022-08-02T05:16:51.510Z,3.599999905
2022-08-02T05:17:52.926Z,3.400000095
2022-08-02T05:18:53.662Z,3.200000048
2022-08-02T05:19:54.554Z,3.200000048
2022-08-02T05:20:58.261Z,3.799999952
2022-08-02T05:21:56.705Z,4
2022-08-02T05:22:57.488Z,3
2022-08-02T05:23:58.290Z,3.400000095
2022-08-02T05:24:59.123Z,4
2022-08-02T05:25:59.932Z,3.400000095
2022-08-02T05:27:00.701Z,3.400000095
2022-08-02T05:28:01.455Z,3.599999905
2022-08-02T05:29:02.216Z,3.700000048
2022-08-02T05:30:03.061Z,4
2022-08-02T05:31:04.369Z,3.5
2022-08-02T05:32:05.102Z,3.5
2022-08-02T05:33:05.816Z,3.299999952
2022-08-02T05:34:11.355Z,3.599999905
2022-08-02T05:35:07.472Z,3.5
2022-08-02T05:36:08.237Z,3.400000095
2022-08-02T05:37:09.766Z,3.5
2022-08-02T05:38:10.364Z,3.900000095
2022-08-02T05:39:12.323Z,3.400000095
2022-08-02T05:40:12.977Z,3.299999952
2022-08-02T05:41:13.958Z,3.700000048
2022-08-02T05:42:15.256Z,3
2022-08-02T05:43:46.761Z,3.5
2022-08-02T05:44:47.561Z,3.799999952
2022-08-02T05:45:48.975Z,3.400000095
2022-08-02T05:46:49.689Z,4.199999809
2022-08-02T05:47:50.395Z,4.300000191
2022-08-02T05:48:51.226Z,3.400000095
2022-08-02T05:49:52.972Z,3.599999905
2022-08-02T05:50:54.506Z,3.700000048
2022-08-02T05:51:55.187Z,4.599999905
2022-08-02T05:52:55.872Z,3.5
2022-08-02T05:53:56.896Z,3.5
2022-08-02T05:54:57.533Z,3.799999952
2022-08-02T05:55:58.358Z,3.599999905
2022-08-02T05:56:59.057Z,4.300000191
2022-08-02T05:57:59.753Z,3.099999905
2022-08-02T05:59:00.526Z,3.400000095
2022-08-02T06:00:02.924Z,3.400000095
2022-08-02T06:01:03.498Z,3.5
2022-08-02T06:02:04.261Z,3.599999905
2022-08-02T06:03:05.794Z,3.599999905
2022-08-02T06:04:06.646Z,3.400000095
2022-08-02T06:05:07.503Z,3.5
2022-08-02T06:06:08.986Z,3.900000095
2022-08-02T06:07:09.675Z,4
2022-08-02T06:08:10.449Z,3.700000048
2022-08-02T06:09:11.530Z,3.900000095
2022-08-02T06:10:12.350Z,3.799999952
2022-08-02T06:11:13.911Z,4.099999905
2022-08-02T06:12:15.680Z,4.300000191
2022-08-02T06:13:46.654Z,4.400000095
2022-08-02T06:14:50.185Z,4.099999905
2022-08-02T06:15:53.377Z,3.900000095
2022-08-02T06:16:49.792Z,4
2022-08-02T06:17:50.540Z,4.099999905
2022-08-02T06:18:51.237Z,4.400000095
2022-08-02T06:19:52.712Z,4.199999809
2022-08-02T06:20:53.448Z,4.400000095
2022-08-02T06:21:54.276Z,3.900000095
2022-08-02T06:22:54.918Z,5.900000095
2022-08-02T06:23:57.615Z,5.800000191
2022-08-02T06:24:56.627Z,7.300000191
2022-08-02T06:25:57.955Z,7.599999905
2022-08-02T06:26:58.686Z,9.399999619
2022-08-02T06:27:59.390Z,8.399999619
2022-08-02T06:29:00.143Z,7.099999905
2022-08-02T06:30:00.979Z,5.400000095
2022-08-02T06:31:02.475Z,5.099999905
2022-08-02T06:32:03.219Z,5.199999809
2022-08-02T06:33:03.945Z,4.099999905
2022-08-02T06:34:04.796Z,4.099999905
2022-08-02T06:35:05.605Z,4.199999809
2022-08-02T06:36:06.408Z,4.199999809
2022-08-02T06:37:07.172Z,3.599999905
2022-08-02T06:38:08.469Z,4.099999905
2022-08-02T06:39:09.309Z,3.900000095
2022-08-02T06:40:10.113Z,4.400000095
2022-08-02T06:41:11.622Z,3.799999952
2022-08-02T06:42:12.728Z,3.799999952
2022-08-02T06:43:13.109Z,5.599999905
2022-08-02T06:44:45.537Z,5.699999809
2022-08-02T06:45:14.671Z,4.199999809
2022-08-02T06:47:11.134Z,4.900000095
2022-08-02T06:47:47.440Z,7.5
2022-08-02T06:48:48.155Z,3.900000095
2022-08-02T06:49:52.265Z,4.199999809
2022-08-02T06:50:50.496Z,3.700000048
2022-08-02T06:51:51.245Z,4.300000191
2022-08-02T06:52:52.805Z,4.199999809
2022-08-02T06:53:53.574Z,4.599999905
2022-08-02T06:54:54.409Z,4.5
2022-08-02T06:55:55.212Z,3.599999905
2022-08-02T06:56:55.973Z,3.700000048
2022-08-02T06:57:56.740Z,3.799999952
2022-08-02T06:58:57.522Z,3.299999952
2022-08-02T06:59:58.522Z,3.5
2022-08-02T07:00:59.226Z,4.099999905
2022-08-02T07:02:00.977Z,3.400000095
2022-08-02T07:03:01.598Z,3.200000048
2022-08-02T07:04:02.331Z,3.900000095
2022-08-02T07:05:03.118Z,4.300000191
2022-08-02T07:06:03.940Z,3.5
2022-08-02T07:07:04.686Z,3.400000095
2022-08-02T07:08:05.425Z,3.700000048
2022-08-02T07:09:20.896Z,3.299999952
2022-08-02T07:10:07.634Z,3.700000048
2022-08-02T07:11:08.985Z,3.299999952
2022-08-02T07:12:09.885Z,4.099999905
2022-08-02T07:13:10.459Z,3.599999905
2022-08-02T07:14:11.514Z,3.299999952
2022-08-02T07:15:12.267Z,3.400000095
2022-08-02T07:16:13.069Z,3.700000048
2022-08-02T07:17:14.461Z,3.200000048
2022-08-02T07:18:45.567Z,4.099999905
2022-08-02T07:19:46.382Z,3.200000048
2022-08-02T07:20:47.229Z,3.700000048
2022-08-02T07:21:57.824Z,3.799999952
2022-08-02T07:22:49.608Z,3.400000095
2022-08-02T07:23:50.369Z,3.599999905
2022-08-02T07:24:51.245Z,3.599999905
2022-08-02T07:26:02.695Z,3.799999952
2022-08-02T07:27:10.548Z,3.700000048
2022-08-02T07:27:53.635Z,3.799999952
2022-08-02T07:28:54.353Z,3.400000095
2022-08-02T07:29:55.199Z,3.299999952
2022-08-02T07:30:56.020Z,3.200000048
2022-08-02T07:31:57.403Z,4.400000095
2022-08-02T07:32:58.132Z,3.900000095
2022-08-02T07:33:58.830Z,3.200000048
2022-08-02T07:34:59.693Z,3.5
2022-08-02T07:36:01.629Z,3.599999905
2022-08-02T07:37:01.817Z,3.700000048
2022-08-02T07:38:02.710Z,3.700000048
2022-08-02T07:39:03.279Z,3.5
2022-08-02T07:40:07.589Z,3.799999952
2022-08-02T07:41:05.490Z,3.799999952
2022-08-02T07:42:07.005Z,3.700000048
2022-08-02T07:43:07.772Z,3.400000095
2022-08-02T07:44:08.496Z,3.599999905
2022-08-02T07:45:09.385Z,4
2022-08-02T07:46:10.173Z,4
2022-08-02T07:47:11.217Z,3.5
2022-08-02T07:48:11.795Z,3.400000095
2022-08-02T07:49:12.555Z,3.799999952
2022-08-02T07:50:13.937Z,4.599999905
2022-08-02T07:51:45.986Z,4.5
2022-08-02T07:52:46.768Z,3.700000048
2022-08-02T07:53:50.197Z,4.099999905
2022-08-02T07:54:48.192Z,3.700000048
2022-08-02T07:55:49.067Z,3.799999952
2022-08-02T07:56:50.869Z,3.200000048
2022-08-02T07:57:51.462Z,3.400000095
2022-08-02T07:58:51.895Z,3.799999952
2022-08-02T07:59:52.655Z,3.099999905
2022-08-02T08:00:53.541Z,3.5
2022-08-02T08:01:54.939Z,3.400000095
2022-08-02T08:02:58.797Z,3.400000095
2022-08-02T08:03:56.498Z,4.099999905
2022-08-02T08:04:57.354Z,3.099999905
2022-08-02T08:05:59.042Z,3.599999905
2022-08-02T08:06:59.867Z,3.200000048
2022-08-02T08:08:00.763Z,3.799999952
2022-08-02T08:09:01.495Z,3.799999952
2022-08-02T08:10:02.877Z,4.900000095
2022-08-02T08:11:04.512Z,4.400000095
2022-08-02T08:12:05.362Z,3.400000095
2022-08-02T08:13:07.046Z,3.5
2022-08-02T08:14:07.644Z,3.400000095
2022-08-02T08:15:08.362Z,3.799999952
2022-08-02T08:16:09.256Z,3.700000048
2022-08-02T08:17:10.095Z,3.799999952
2022-08-02T08:18:10.892Z,4
2022-08-02T08:19:11.693Z,3.599999905
2022-08-02T08:20:15.918Z,2.900000095
2022-08-02T08:21:14.302Z,3.299999952
2022-08-02T08:22:46.435Z,3.200000048
2022-08-02T08:23:47.208Z,3.200000048
2022-08-02T08:24:48.133Z,4.5
2022-08-02T08:25:48.811Z,3.700000048
2022-08-02T08:26:49.662Z,3.900000095
2022-08-02T08:27:50.449Z,3.200000048
2022-08-02T08:28:51.168Z,3.5
2022-08-02T08:29:51.933Z,3.700000048
2022-08-02T08:30:52.764Z,3.299999952
2022-08-02T08:31:54.515Z,3.299999952
2022-08-02T08:32:55.351Z,3.700000048
2022-08-02T08:33:56.054Z,3.200000048
2022-08-02T08:34:56.844Z,3.5
2022-08-02T08:35:58.428Z,3.5
2022-08-02T08:36:59.250Z,3.599999905
2022-08-02T08:38:04.177Z,4.199999809
2022-08-02T08:39:00.977Z,3.200000048
2022-08-02T08:40:01.834Z,3.599999905
2022-08-02T08:41:03.502Z,3.599999905
2022-08-02T08:42:05.085Z,3.200000048
2022-08-02T08:43:05.860Z,3.599999905
2022-08-02T08:44:06.582Z,3.599999905
2022-08-02T08:45:07.561Z,3.400000095
2022-08-02T08:46:08.421Z,3.700000048
2022-08-02T08:47:11.367Z,3.5
2022-08-02T08:48:10.094Z,3.599999905
2022-08-02T08:49:10.871Z,3.400000095
2022-08-02T08:50:18.055Z,4.199999809
2022-08-02T08:51:13.406Z,3.200000048
2022-08-02T08:52:45.466Z,3.5
2022-08-02T08:53:46.971Z,3.299999952
2022-08-02T08:54:48.673Z,3.299999952
2022-08-02T08:55:48.534Z,3.400000095
2022-08-02T08:56:49.394Z,3.099999905
2022-08-02T08:57:50.917Z,3.700000048
2022-08-02T08:58:51.583Z,3.599999905
2022-08-02T08:59:52.302Z,3.799999952
2022-08-02T09:00:53.066Z,3.299999952
2022-08-02T09:01:54.533Z,3.799999952
2022-08-02T09:02:55.232Z,4
2022-08-02T09:03:55.930Z,3.5
2022-08-02T09:04:56.627Z,3.5
2022-08-02T09:05:57.322Z,3.900000095
2022-08-02T09:06:58.055Z,3.200000048
2022-08-02T09:07:58.796Z,3.5
2022-08-02T09:08:59.982Z,3.599999905
2022-08-02T09:10:00.708Z,3.799999952
2022-08-02T09:11:01.452Z,3.299999952
2022-08-02T09:12:02.974Z,3.299999952
2022-08-02T09:13:03.708Z,3.599999905
2022-08-02T09:14:04.493Z,3.700000048
2022-08-02T09:15:05.297Z,3.700000048
2022-08-02T09:16:12.105Z,3.099999905
2022-08-02T09:17:06.908Z,3.200000048
2022-08-02T09:18:07.713Z,3.599999905
2022-08-02T09:19:08.524Z,3.5
2022-08-02T09:20:10.021Z,3.299999952
2022-08-02T09:21:10.979Z,3.400000095
2022-08-02T09:22:12.789Z,3.099999905
2022-08-02T09:23:13.652Z,3.599999905
2022-08-02T09:24:44.668Z,3.599999905
2022-08-02T09:25:58.983Z,3.099999905
2022-08-02T09:26:46.078Z,3.400000095
2022-08-02T09:27:46.879Z,3.400000095
2022-08-02T09:28:47.666Z,3.099999905
2022-08-02T09:30:05.959Z,3.400000095
2022-08-02T09:30:49.086Z,3.700000048
2022-08-02T09:31:50.163Z,3.400000095
2022-08-02T09:32:51.315Z,3.5
2022-08-02T09:33:52.045Z,3.099999905
2022-08-02T09:34:52.784Z,3.099999905
2022-08-02T09:36:06.965Z,3.400000095
2022-08-02T09:36:54.906Z,3.099999905
2022-08-02T09:37:54.966Z,3.099999905
2022-08-02T09:38:55.762Z,3.099999905
2022-08-02T09:39:57.142Z,3
2022-08-02T09:40:57.276Z,3.099999905
2022-08-02T09:41:58.842Z,3.599999905
2022-08-02T09:42:59.531Z,3.099999905
2022-08-02T09:44:05.355Z,3.599999905
2022-08-02T09:45:01.749Z,2.900000095
2022-08-02T09:46:02.446Z,3.099999905
2022-08-02T09:47:03.147Z,3.099999905
2022-08-02T09:48:03.866Z,2.599999905
2022-08-02T09:49:04.696Z,2.799999952
2022-08-02T09:50:05.336Z,3
2022-08-02T09:51:06.062Z,2.900000095
2022-08-02T09:52:07.491Z,2.700000048
2022-08-02T09:53:08.233Z,2.700000048
2022-08-02T09:54:09.339Z,2.900000095
2022-08-02T09:55:09.670Z,2.599999905
2022-08-02T09:56:33.930Z,2.5
2022-08-02T09:57:11.829Z,3.599999905
2022-08-02T09:58:12.600Z,2.900000095
2022-08-02T09:59:43.794Z,2.799999952
2022-08-02T10:00:52.468Z,2.900000095
2022-08-02T10:01:51.070Z,2.900000095
2022-08-02T10:02:46.843Z,2.900000095
2022-08-02T10:03:47.578Z,2.700000048
2022-08-02T10:04:53.445Z,2.599999905
2022-08-02T10:05:54.099Z,2.799999952
2022-08-02T10:06:49.707Z,2.599999905
2022-08-02T10:07:50.457Z,2.5
2022-08-02T10:08:51.177Z,2.799999952
2022-08-02T10:09:51.916Z,2.599999905
2022-08-02T10:10:52.563Z,2.400000095
2022-08-02T10:11:53.990Z,2.299999952
2022-08-02T10:12:55.404Z,2.599999905
2022-08-02T10:13:56.157Z,2.5
2022-08-02T10:14:57.525Z,2.299999952
2022-08-02T10:15:58.202Z,2.299999952
2022-08-02T10:16:58.941Z,3.099999905
2022-08-02T10:17:59.736Z,2.400000095
2022-08-02T10:19:00.458Z,2.799999952
2022-08-02T10:20:04.482Z,2.599999905
2022-08-02T10:21:01.900Z,2.299999952
2022-08-02T10:22:02.628Z,2.5
2022-08-02T10:23:03.819Z,3
2022-08-02T10:24:04.544Z,2.599999905
2022-08-02T10:25:05.325Z,2.900000095
2022-08-02T10:26:06.013Z,2.799999952
2022-08-02T10:27:06.697Z,2.700000048
2022-08-02T10:28:07.400Z,2.700000048
2022-08-02T10:29:08.104Z,2.799999952
2022-08-02T10:30:08.924Z,2.400000095
2022-08-02T10:31:09.648Z,2.900000095
2022-08-02T10:32:10.566Z,2.700000048
2022-08-02T10:33:11.930Z,3
2022-08-02T10:34:43.334Z,3.299999952
2022-08-02T10:35:44.120Z,2.599999905
2022-08-02T10:36:44.861Z,3.700000048
2022-08-02T10:37:45.611Z,2.200000048
2022-08-02T10:38:46.865Z,2.799999952
2022-08-02T10:39:50.768Z,2.700000048
2022-08-02T10:40:48.430Z,2.400000095
2022-08-02T10:41:50.010Z,2.599999905
2022-08-02T10:42:51.499Z,2.400000095
2022-08-02T10:43:52.193Z,2.799999952
2022-08-02T10:44:52.897Z,2.400000095
2022-08-02T10:45:53.691Z,2.700000048
2022-08-02T10:46:54.423Z,2.900000095
2022-08-02T10:47:55.168Z,2.5
2022-08-02T10:48:55.951Z,2.299999952
2022-08-02T10:49:56.751Z,2.799999952
2022-08-02T10:50:57.464Z,2.299999952
2022-08-02T10:51:58.130Z,2.5
2022-08-02T10:52:59.893Z,2.200000048
2022-08-02T10:54:00.644Z,2.400000095
2022-08-02T10:55:01.353Z,2.599999905
2022-08-02T10:56:02.109Z,2.099999905
2022-08-02T10:57:02.836Z,2.299999952
2022-08-02T10:58:03.579Z,2.200000048
2022-08-02T10:59:04.303Z,2.400000095
2022-08-02T11:00:05.032Z,2.200000048
2022-08-02T11:01:05.920Z,2.700000048
2022-08-02T11:02:07.519Z,2.299999952
2022-08-02T11:03:08.209Z,2.5
2022-08-02T11:04:10.687Z,2.299999952
2022-08-02T11:05:10.210Z,2.400000095
2022-08-02T11:06:25.793Z,2.200000048
2022-08-02T11:07:12.505Z,2.700000048
2022-08-02T11:08:43.524Z,3.200000048
2022-08-02T11:09:44.986Z,2.299999952
2022-08-02T11:10:45.725Z,2.200000048
2022-08-02T11:11:53.958Z,2.400000095
2022-08-02T11:12:48.018Z,2.299999952
2022-08-02T11:13:48.732Z,2.400000095
2022-08-02T11:14:49.413Z,2.200000048
2022-08-02T11:15:50.095Z,2.200000048
2022-08-02T11:16:50.794Z,2.299999952
2022-08-02T11:17:51.565Z,2.5
2022-08-02T11:18:52.300Z,2.200000048
2022-08-02T11:19:53.014Z,2.5
2022-08-02T11:20:53.692Z,3.200000048
2022-08-02T11:21:55.390Z,2.900000095
2022-08-02T11:22:57.036Z,2.900000095
2022-08-02T11:23:57.744Z,2.299999952
2022-08-02T11:24:58.472Z,2.299999952
2022-08-02T11:26:07.572Z,2.299999952
2022-08-02T11:27:00.004Z,2.400000095
2022-08-02T11:28:00.712Z,2.5
2022-08-02T11:29:01.479Z,2.099999905
2022-08-02T11:30:02.269Z,2.5
2022-08-02T11:31:03.078Z,2
2022-08-02T11:32:03.632Z,2.200000048
2022-08-02T11:33:05.020Z,1.899999976
2022-08-02T11:34:09.552Z,1.899999976
2022-08-02T11:35:06.449Z,2.099999905
2022-08-02T11:36:07.222Z,2.099999905
2022-08-02T11:37:07.907Z,2.299999952
2022-08-02T11:38:08.531Z,2.599999905